sensor_id;sensor_type;location;lat;lon;timestamp;P1;P2;P0
53698;PMS7003;68408;53.952;27.612;2023-03-14T00:03:48;14.4;11.2;8.5
53698;PMS7003;68408;53.952;27.612;2023-03-14T00:08:26;12.9;10.1;7.8
53698;PMS7003;68408;53.952;27.612;2023-03-14T00:13:37;12.4;10.3;7.9
53698;PMS7003;68408;53.952;27.612;2023-03-14T00:19:02;13.4;10.8;8.8
53698;PMS7003;68408;53.952;27.612;2023-03-14T00:23:48;13;10.8;8.7
53698;PMS7003;68408;53.952;27.612;2023-03-14T00:28:36;11.3;9.6;7.7
53698;PMS7003;68408;53.952;27.612;2023-03-14T00:34:00;12.5;10.6;8.2
53698;PMS7003;68408;53.952;27.612;2023-03-14T00:38:27;13.5;10.8;8.8
53698;PMS7003;68408;53.952;27.612;2023-03-14T00:43:46;11.2;9.4;7.3
53698;PMS7003;68408;53.952;27.612;2023-03-14T00:49:14;11.4;9.1;7.4
53698;PMS7003;68408;53.952;27.612;2023-03-14T00:53:48;11.6;10;7.9
53698;PMS7003;68408;53.952;27.612;2023-03-14T00:59:00;11.5;9.7;7.7
53698;PMS7003;68408;53.952;27.612;2023-03-14T01:04:02;12.9;10.1;7.5
53698;PMS7003;68408;53.952;27.612;2023-03-14T01:08:49;10.8;9.2;7.2
53698;PMS7003;68408;53.952;27.612;2023-03-14T01:13:40;11.1;10;8
53698;PMS7003;68408;53.952;27.612;2023-03-14T01:18:48;11.9;9.3;6.8
53698;PMS7003;68408;53.952;27.612;2023-03-14T01:23:38;12.5;10.2;7.6
53698;PMS7003;68408;53.952;27.612;2023-03-14T01:29:02;13.5;11.1;8.8
53698;PMS7003;68408;53.952;27.612;2023-03-14T01:34:16;13.2;10.5;8.3
53698;PMS7003;68408;53.952;27.612;2023-03-14T01:38:39;14.4;11.1;9.1
53698;PMS7003;68408;53.952;27.612;2023-03-14T01:44:02;12.7;10;7.3
53698;PMS7003;68408;53.952;27.612;2023-03-14T01:49:04;12.5;10.8;8.3
53698;PMS7003;68408;53.952;27.612;2023-03-14T01:54:05;12.7;10.2;7.8
53698;PMS7003;68408;53.952;27.612;2023-03-14T01:58:49;14.6;11.7;9.1
53698;PMS7003;68408;53.952;27.612;2023-03-14T02:04:03;14.3;11;8.7
53698;PMS7003;68408;53.952;27.612;2023-03-14T02:09:16;13.5;10.8;8.5
53698;PMS7003;68408;53.952;27.612;2023-03-14T02:14:22;11.1;9.6;7.6
53698;PMS7003;68408;53.952;27.612;2023-03-14T02:18:26;11.6;8.6;6.8
53698;PMS7003;68408;53.952;27.612;2023-03-14T02:24:17;11.3;9;7.3
53698;PMS7003;68408;53.952;27.612;2023-03-14T02:29:02;11.7;8.8;6.9
53698;PMS7003;68408;53.952;27.612;2023-03-14T02:33:52;11.4;9.2;7.1
53698;PMS7003;68408;53.952;27.612;2023-03-14T02:38:50;9.4;7.5;6.1
53698;PMS7003;68408;53.952;27.612;2023-03-14T02:44:17;10.9;9.7;7.2
53698;PMS7003;68408;53.952;27.612;2023-03-14T02:48:28;9.9;8;6.1
53698;PMS7003;68408;53.952;27.612;2023-03-14T02:53:29;10.5;9.1;6.7
53698;PMS7003;68408;53.952;27.612;2023-03-14T02:58:59;10.3;8.4;6.3
53698;PMS7003;68408;53.952;27.612;2023-03-14T03:03:36;13.1;9.9;7.7
53698;PMS7003;68408;53.952;27.612;2023-03-14T03:08:48;10.1;7.3;6
53698;PMS7003;68408;53.952;27.612;2023-03-14T03:13:48;10.6;8.2;6.4
53698;PMS7003;68408;53.952;27.612;2023-03-14T03:18:26;10.6;8.8;7.1
53698;PMS7003;68408;53.952;27.612;2023-03-14T03:24:03;10.5;8.1;6.3
53698;PMS7003;68408;53.952;27.612;2023-03-14T03:28:26;12.4;9.9;8
53698;PMS7003;68408;53.952;27.612;2023-03-14T03:33:48;11.5;9;7.1
53698;PMS7003;68408;53.952;27.612;2023-03-14T03:39:03;11.2;8.5;6.8
53698;PMS7003;68408;53.952;27.612;2023-03-14T03:44:16;10.5;8.9;7.1
53698;PMS7003;68408;53.952;27.612;2023-03-14T03:48:26;12.5;10.3;7.6
53698;PMS7003;68408;53.952;27.612;2023-03-14T03:53:36;12.4;10.5;7.8
53698;PMS7003;68408;53.952;27.612;2023-03-14T03:58:37;11.2;9.2;7.1
53698;PMS7003;68408;53.952;27.612;2023-03-14T04:04:15;12.6;10.3;7.5
53698;PMS7003;68408;53.952;27.612;2023-03-14T04:08:49;11.7;9.5;7.5
53698;PMS7003;68408;53.952;27.612;2023-03-14T04:13:27;13.1;10.1;7.7
53698;PMS7003;68408;53.952;27.612;2023-03-14T04:19:17;12.7;10.5;8.3
53698;PMS7003;68408;53.952;27.612;2023-03-14T04:23:39;13.7;11.3;8.8
53698;PMS7003;68408;53.952;27.612;2023-03-14T04:28:53;13.3;10.4;7.8
53698;PMS7003;68408;53.952;27.612;2023-03-14T04:34:03;13.6;10.5;8
53698;PMS7003;68408;53.952;27.612;2023-03-14T04:39:17;11.6;9.8;7.8
53698;PMS7003;68408;53.952;27.612;2023-03-14T04:43:31;13.8;10.4;8.1
53698;PMS7003;68408;53.952;27.612;2023-03-14T04:49:03;11.9;9.9;7.6
53698;PMS7003;68408;53.952;27.612;2023-03-14T04:54:03;12.2;10.5;7.9
53698;PMS7003;68408;53.952;27.612;2023-03-14T04:59:01;13.1;10.6;7.8
53698;PMS7003;68408;53.952;27.612;2023-03-14T05:03:26;12.6;9.6;6.8
53698;PMS7003;68408;53.952;27.612;2023-03-14T05:09:01;12;9.8;7.3
53698;PMS7003;68408;53.952;27.612;2023-03-14T05:14:17;13.1;9.8;7.6
53698;PMS7003;68408;53.952;27.612;2023-03-14T05:19:17;12.2;9.5;7.5
53698;PMS7003;68408;53.952;27.612;2023-03-14T05:23:37;12.9;11.4;8.7
53698;PMS7003;68408;53.952;27.612;2023-03-14T05:29:17;12.9;10.5;8.3
53698;PMS7003;68408;53.952;27.612;2023-03-14T05:34:01;12.4;9.5;7.4
53698;PMS7003;68408;53.952;27.612;2023-03-14T05:38:47;12.8;10.3;8.2
53698;PMS7003;68408;53.952;27.612;2023-03-14T05:43:37;13;10;7.8
53698;PMS7003;68408;53.952;27.612;2023-03-14T05:49:17;13.1;10.6;8
53698;PMS7003;68408;53.952;27.612;2023-03-14T05:54:01;13.3;11;8.3
53698;PMS7003;68408;53.952;27.612;2023-03-14T05:59:03;12.2;11;8.5
53698;PMS7003;68408;53.952;27.612;2023-03-14T06:04:15;11.3;9.4;7.1
53698;PMS7003;68408;53.952;27.612;2023-03-14T06:09:03;12.7;9.5;7.6
53698;PMS7003;68408;53.952;27.612;2023-03-14T06:13:39;11.7;9.3;7.5
53698;PMS7003;68408;53.952;27.612;2023-03-14T06:18:49;11.4;8.6;6.6
53698;PMS7003;68408;53.952;27.612;2023-03-14T06:23:27;11.6;9.6;7.4
53698;PMS7003;68408;53.952;27.612;2023-03-14T06:29:03;12.3;10.4;8
53698;PMS7003;68408;53.952;27.612;2023-03-14T06:33:49;10.8;9.3;7.2
53698;PMS7003;68408;53.952;27.612;2023-03-14T06:38:47;10.6;9.2;7.4
53698;PMS7003;68408;53.952;27.612;2023-03-14T06:44:03;14.3;10;8
53698;PMS7003;68408;53.952;27.612;2023-03-14T06:49:17;12.6;10.1;7.8
53698;PMS7003;68408;53.952;27.612;2023-03-14T06:53:49;10.6;8.8;6.8
53698;PMS7003;68408;53.952;27.612;2023-03-14T06:58:39;12.4;9.3;7.4
53698;PMS7003;68408;53.952;27.612;2023-03-14T07:03:35;10.4;8.7;6.7
53698;PMS7003;68408;53.952;27.612;2023-03-14T07:09:17;12.6;10.2;8.2
53698;PMS7003;68408;53.952;27.612;2023-03-14T07:13:27;13.9;10.2;7.7
53698;PMS7003;68408;53.952;27.612;2023-03-14T07:18:39;12.1;9.7;7.7
53698;PMS7003;68408;53.952;27.612;2023-03-14T07:24:17;12.3;9.4;7.6
53698;PMS7003;68408;53.952;27.612;2023-03-14T07:28:39;11.8;9.7;7.4
53698;PMS7003;68408;53.952;27.612;2023-03-14T07:33:27;10.7;8.7;7
53698;PMS7003;68408;53.952;27.612;2023-03-14T07:38:49;9.7;7.9;6.6
53698;PMS7003;68408;53.952;27.612;2023-03-14T07:44:03;9.9;8.5;6.7
53698;PMS7003;68408;53.952;27.612;2023-03-14T07:48:37;10.1;8.6;7.1
53698;PMS7003;68408;53.952;27.612;2023-03-14T07:54:15;11.5;9.3;7.3
53698;PMS7003;68408;53.952;27.612;2023-03-14T07:59:15;10.4;8.1;6.9
53698;PMS7003;68408;53.952;27.612;2023-03-14T08:03:27;9.3;7.6;6.5
53698;PMS7003;68408;53.952;27.612;2023-03-14T08:08:49;10.6;8.7;7.2
53698;PMS7003;68408;53.952;27.612;2023-03-14T08:14:03;10.2;8.4;6.8
53698;PMS7003;68408;53.952;27.612;2023-03-14T08:19:17;10.2;8.7;6.9
53698;PMS7003;68408;53.952;27.612;2023-03-14T08:24:15;10.3;8.4;6.8
53698;PMS7003;68408;53.952;27.612;2023-03-14T08:28:47;9.8;8.3;6.4
53698;PMS7003;68408;53.952;27.612;2023-03-14T08:34:13;9.1;7.6;5.9
53698;PMS7003;68408;53.952;27.612;2023-03-14T08:38:49;9.1;7.1;5.5
53698;PMS7003;68408;53.952;27.612;2023-03-14T08:43:39;9.2;7.2;5.6
53698;PMS7003;68408;53.952;27.612;2023-03-14T08:48:45;7.2;5.7;4.5
53698;PMS7003;68408;53.952;27.612;2023-03-14T08:54:15;7;5.9;4.6
53698;PMS7003;68408;53.952;27.612;2023-03-14T08:59:03;8;6;4.8
53698;PMS7003;68408;53.952;27.612;2023-03-14T09:04:03;6.8;5.7;4.4
53698;PMS7003;68408;53.952;27.612;2023-03-14T09:09:17;8.8;5.9;4.6
53698;PMS7003;68408;53.952;27.612;2023-03-14T09:13:27;7.8;6.7;5.3
53698;PMS7003;68408;53.952;27.612;2023-03-14T09:18:49;7.6;6;4.7
53698;PMS7003;68408;53.952;27.612;2023-03-14T09:23:49;8.9;6.5;4.9
53698;PMS7003;68408;53.952;27.612;2023-03-14T09:28:49;6.9;5.7;4.6
53698;PMS7003;68408;53.952;27.612;2023-03-14T09:34:03;6.8;5.4;4.2
53698;PMS7003;68408;53.952;27.612;2023-03-14T09:38:37;7.7;6.3;4.9
53698;PMS7003;68408;53.952;27.612;2023-03-14T09:43:49;7.3;5.8;4.8
53698;PMS7003;68408;53.952;27.612;2023-03-14T09:49:04;8.2;6.5;5.3
53698;PMS7003;68408;53.952;27.612;2023-03-14T09:54:20;8.3;7;5.4
53698;PMS7003;68408;53.952;27.612;2023-03-14T09:59:03;7.2;6.1;5.1
53698;PMS7003;68408;53.952;27.612;2023-03-14T10:03:49;6.8;5.8;4.7
53698;PMS7003;68408;53.952;27.612;2023-03-14T10:09:17;7.6;6.4;5.1
53698;PMS7003;68408;53.952;27.612;2023-03-14T10:14:17;10.8;8.9;6.6
53698;PMS7003;68408;53.952;27.612;2023-03-14T10:18:39;9.1;7.8;6.3
53698;PMS7003;68408;53.952;27.612;2023-03-14T10:24:16;7.6;6.4;5.1
53698;PMS7003;68408;53.952;27.612;2023-03-14T10:29:17;7.9;6.6;5.4
53698;PMS7003;68408;53.952;27.612;2023-03-14T10:33:37;7.9;6.2;5.1
53698;PMS7003;68408;53.952;27.612;2023-03-14T10:38:37;7.9;6.4;5.4
53698;PMS7003;68408;53.952;27.612;2023-03-14T10:43:49;8.5;6.8;5.5
53698;PMS7003;68408;53.952;27.612;2023-03-14T10:49:23;7.6;5.5;4.6
53698;PMS7003;68408;53.952;27.612;2023-03-14T10:53:27;8.7;6.8;5.6
53698;PMS7003;68408;53.952;27.612;2023-03-14T10:59:17;9.6;7.2;6
53698;PMS7003;68408;53.952;27.612;2023-03-14T11:04:21;10.3;8.8;6.5
53698;PMS7003;68408;53.952;27.612;2023-03-14T11:08:50;7.9;6.2;4.9
53698;PMS7003;68408;53.952;27.612;2023-03-14T11:13:53;7.5;5.9;5
53698;PMS7003;68408;53.952;27.612;2023-03-14T11:19:04;6.7;5.7;4.8
53698;PMS7003;68408;53.952;27.612;2023-03-14T11:24:06;6.9;5.6;4.4
53698;PMS7003;68408;53.952;27.612;2023-03-14T11:29:02;5.4;4.6;3.6
53698;PMS7003;68408;53.952;27.612;2023-03-14T11:33:47;6.3;5.2;4.2
53698;PMS7003;68408;53.952;27.612;2023-03-14T11:38:42;5;4.2;3.5
53698;PMS7003;68408;53.952;27.612;2023-03-14T11:44:03;5.4;4.7;4
53698;PMS7003;68408;53.952;27.612;2023-03-14T11:48:40;6.3;5.5;4.5
53698;PMS7003;68408;53.952;27.612;2023-03-14T11:54:18;6.6;5.2;4.2
53698;PMS7003;68408;53.952;27.612;2023-03-14T11:59:18;7.2;6.4;5.3
53698;PMS7003;68408;53.952;27.612;2023-03-14T12:03:38;7;5.5;4.6
53698;PMS7003;68408;53.952;27.612;2023-03-14T12:09:03;5.9;4.6;4.1
53698;PMS7003;68408;53.952;27.612;2023-03-14T12:14:03;5.5;4.2;3.5
53698;PMS7003;68408;53.952;27.612;2023-03-14T12:18:49;5.4;3.9;3.2
53698;PMS7003;68408;53.952;27.612;2023-03-14T12:24:03;5;4;3.6
53698;PMS7003;68408;53.952;27.612;2023-03-14T12:28:49;5.5;4.4;3.7
53698;PMS7003;68408;53.952;27.612;2023-03-14T12:33:37;5.4;4.4;3.6
53698;PMS7003;68408;53.952;27.612;2023-03-14T12:39:05;4.7;4.1;3.3
53698;PMS7003;68408;53.952;27.612;2023-03-14T12:43:49;5.1;4.4;3.6
53698;PMS7003;68408;53.952;27.612;2023-03-14T12:48:45;6.2;4.3;3.9
53698;PMS7003;68408;53.952;27.612;2023-03-14T12:53:44;5.5;4.5;3.8
53698;PMS7003;68408;53.952;27.612;2023-03-14T12:59:27;4.8;4.2;3.5
53698;PMS7003;68408;53.952;27.612;2023-03-14T13:03:45;4.7;3.9;3.4
53698;PMS7003;68408;53.952;27.612;2023-03-14T13:08:49;5;3.8;3.2
53698;PMS7003;68408;53.952;27.612;2023-03-14T13:13:40;4.6;3.8;3.3
53698;PMS7003;68408;53.952;27.612;2023-03-14T13:19:15;6.3;5.2;4.2
53698;PMS7003;68408;53.952;27.612;2023-03-14T13:23:57;4.7;4.1;3.5
53698;PMS7003;68408;53.952;27.612;2023-03-14T13:28:27;6.3;4.6;3.8
53698;PMS7003;68408;53.952;27.612;2023-03-14T13:34:16;4.9;3.7;3.1
53698;PMS7003;68408;53.952;27.612;2023-03-14T13:38:54;3.5;3.3;2.6
53698;PMS7003;68408;53.952;27.612;2023-03-14T13:43:28;5.2;4.3;3.6
53698;PMS7003;68408;53.952;27.612;2023-03-14T13:48:49;5.4;4;3.5
53698;PMS7003;68408;53.952;27.612;2023-03-14T13:53:51;5.1;3.8;3.3
53698;PMS7003;68408;53.952;27.612;2023-03-14T13:58:49;5.5;4.5;3.6
53698;PMS7003;68408;53.952;27.612;2023-03-14T14:04:17;3.8;3.6;2.8
53698;PMS7003;68408;53.952;27.612;2023-03-14T14:09:17;3.5;3.3;2.8
53698;PMS7003;68408;53.952;27.612;2023-03-14T14:13:39;4.1;3.2;2.7
53698;PMS7003;68408;53.952;27.612;2023-03-14T14:18:51;4.9;3.5;3
53698;PMS7003;68408;53.952;27.612;2023-03-14T14:24:03;4.4;3.3;3
53698;PMS7003;68408;53.952;27.612;2023-03-14T14:29:05;4.3;3.4;2.9
53698;PMS7003;68408;53.952;27.612;2023-03-14T14:34:17;5.1;3.7;3.1
53698;PMS7003;68408;53.952;27.612;2023-03-14T14:38:27;4.3;3.9;3.2
53698;PMS7003;68408;53.952;27.612;2023-03-14T14:44:18;4;3.6;3
53698;PMS7003;68408;53.952;27.612;2023-03-14T14:49:06;4.1;2.9;2.4
53698;PMS7003;68408;53.952;27.612;2023-03-14T14:53:39;5;4.1;3.4
53698;PMS7003;68408;53.952;27.612;2023-03-14T14:58:47;4.6;3.5;2.8
53698;PMS7003;68408;53.952;27.612;2023-03-14T15:04:17;5;4.1;3.6
53698;PMS7003;68408;53.952;27.612;2023-03-14T15:08:27;4.5;3.8;3.2
53698;PMS7003;68408;53.952;27.612;2023-03-14T15:14:03;8.7;7;5.5
53698;PMS7003;68408;53.952;27.612;2023-03-14T15:19:08;9.2;7.9;6.4
53698;PMS7003;68408;53.952;27.612;2023-03-14T15:23:27;10.8;9.2;7.3
53698;PMS7003;68408;53.952;27.612;2023-03-14T15:29:05;10.7;9;7.2
53698;PMS7003;68408;53.952;27.612;2023-03-14T15:33:39;12.1;9.9;7.5
53698;PMS7003;68408;53.952;27.612;2023-03-14T15:38:47;9.2;7.6;6.4
53698;PMS7003;68408;53.952;27.612;2023-03-14T15:43:53;6.1;5.4;4.4
53698;PMS7003;68408;53.952;27.612;2023-03-14T15:49:19;6.2;5.3;4.2
53698;PMS7003;68408;53.952;27.612;2023-03-14T15:53:27;7.3;5.4;4.6
53698;PMS7003;68408;53.952;27.612;2023-03-14T15:59:05;7.6;5.6;4.6
53698;PMS7003;68408;53.952;27.612;2023-03-14T16:04:05;6.3;5.4;4.6
53698;PMS7003;68408;53.952;27.612;2023-03-14T16:08:39;5.6;4.6;3.6
53698;PMS7003;68408;53.952;27.612;2023-03-14T16:13:41;7.1;5.4;4.4
53698;PMS7003;68408;53.952;27.612;2023-03-14T16:19:19;7;5.4;4.3
53698;PMS7003;68408;53.952;27.612;2023-03-14T16:24:19;6.1;5.5;4.6
53698;PMS7003;68408;53.952;27.612;2023-03-14T16:29:19;5.1;4.3;3.6
53698;PMS7003;68408;53.952;27.612;2023-03-14T16:33:27;5.6;4.5;3.8
53698;PMS7003;68408;53.952;27.612;2023-03-14T16:39:19;5.4;4;3.3
53698;PMS7003;68408;53.952;27.612;2023-03-14T16:43:49;4.7;4;3.4
53698;PMS7003;68408;53.952;27.612;2023-03-14T16:48:49;6.1;4.4;3.6
53698;PMS7003;68408;53.952;27.612;2023-03-14T16:53:27;5.7;4.9;3.9
53698;PMS7003;68408;53.952;27.612;2023-03-14T16:59:19;5.8;4.4;3.5
53698;PMS7003;68408;53.952;27.612;2023-03-14T17:03:37;4.9;4.1;3.5
53698;PMS7003;68408;53.952;27.612;2023-03-14T17:09:19;6.2;5.1;4.4
53698;PMS7003;68408;53.952;27.612;2023-03-14T17:14:19;5.7;4.5;3.8
53698;PMS7003;68408;53.952;27.612;2023-03-14T17:18:27;5.6;4.6;4
53698;PMS7003;68408;53.952;27.612;2023-03-14T17:23:28;5.8;3.9;3.3
53698;PMS7003;68408;53.952;27.612;2023-03-14T17:29:03;6;4.9;4.2
53698;PMS7003;68408;53.952;27.612;2023-03-14T17:34:05;7.3;5.8;4.7
53698;PMS7003;68408;53.952;27.612;2023-03-14T17:39:05;10.1;8;6.4
53698;PMS7003;68408;53.952;27.612;2023-03-14T17:44:03;7.4;6.5;5.2
53698;PMS7003;68408;53.952;27.612;2023-03-14T17:49:19;8.9;7;5.7
53698;PMS7003;68408;53.952;27.612;2023-03-14T17:54:05;7.1;5.4;3.7
53698;PMS7003;68408;53.952;27.612;2023-03-14T17:58:49;9.2;6.8;5.7
53698;PMS7003;68408;53.952;27.612;2023-03-14T18:03:47;8.1;6.4;5
53698;PMS7003;68408;53.952;27.612;2023-03-14T18:09:17;6.8;6;5
53698;PMS7003;68408;53.952;27.612;2023-03-14T18:13:51;8.1;5.9;4.9
53698;PMS7003;68408;53.952;27.612;2023-03-14T18:19:03;6.8;5.9;4.3
53698;PMS7003;68408;53.952;27.612;2023-03-14T18:24:01;6.4;5.4;4.5
53698;PMS7003;68408;53.952;27.612;2023-03-14T18:28:27;6.8;5;4.2
53698;PMS7003;68408;53.952;27.612;2023-03-14T18:33:39;7.1;5.6;4.7
53698;PMS7003;68408;53.952;27.612;2023-03-14T18:38:27;8.3;5.6;4.8
53698;PMS7003;68408;53.952;27.612;2023-03-14T18:43:27;6.3;5;4.1
53698;PMS7003;68408;53.952;27.612;2023-03-14T18:49:03;6.7;4.7;3.9
53698;PMS7003;68408;53.952;27.612;2023-03-14T18:54:17;7.2;5.5;4.6
53698;PMS7003;68408;53.952;27.612;2023-03-14T18:58:35;6.3;5.3;4.1
53698;PMS7003;68408;53.952;27.612;2023-03-14T19:03:51;7.2;5.8;4.7
53698;PMS7003;68408;53.952;27.612;2023-03-14T19:09:03;10;8.1;6.2
53698;PMS7003;68408;53.952;27.612;2023-03-14T19:13:49;7.4;6;4.8
53698;PMS7003;68408;53.952;27.612;2023-03-14T19:18:41;6.5;5.2;3.8
53698;PMS7003;68408;53.952;27.612;2023-03-14T19:24:01;7;5.5;4.5
53698;PMS7003;68408;53.952;27.612;2023-03-14T19:29:17;6.3;5.3;4.2
53698;PMS7003;68408;53.952;27.612;2023-03-14T19:34:17;6.7;5.3;4.2
53698;PMS7003;68408;53.952;27.612;2023-03-14T19:38:35;5.9;4.4;3.7
53698;PMS7003;68408;53.952;27.612;2023-03-14T19:44:15;6.8;5.5;4.5
53698;PMS7003;68408;53.952;27.612;2023-03-14T19:49:03;7.5;5.4;4.2
53698;PMS7003;68408;53.952;27.612;2023-03-14T19:53:35;7.1;5.7;4.6
53698;PMS7003;68408;53.952;27.612;2023-03-14T19:58:47;6.1;4.8;3.8
53698;PMS7003;68408;53.952;27.612;2023-03-14T20:04:17;7.1;5.7;4.8
53698;PMS7003;68408;53.952;27.612;2023-03-14T20:08:35;6.5;5.4;4.3
53698;PMS7003;68408;53.952;27.612;2023-03-14T20:13:59;6.7;5.1;4.3
53698;PMS7003;68408;53.952;27.612;2023-03-14T20:19:17;7;5.4;4.2
53698;PMS7003;68408;53.952;27.612;2023-03-14T20:23:41;7.6;5.4;4.3
53698;PMS7003;68408;53.952;27.612;2023-03-14T20:28:41;7.4;5.6;4.2
53698;PMS7003;68408;53.952;27.612;2023-03-14T20:33:43;7;4.7;4.1
53698;PMS7003;68408;53.952;27.612;2023-03-14T20:38:35;6.5;5.4;4.6
53698;PMS7003;68408;53.952;27.612;2023-03-14T20:44:03;6.7;4.9;3.9
53698;PMS7003;68408;53.952;27.612;2023-03-14T20:48:47;6.9;5.4;4.3
53698;PMS7003;68408;53.952;27.612;2023-03-14T20:54:17;6.8;5;4
53698;PMS7003;68408;53.952;27.612;2023-03-14T20:59:03;7.3;5.7;4.5
53698;PMS7003;68408;53.952;27.612;2023-03-14T21:03:27;6.6;5.2;4.1
53698;PMS7003;68408;53.952;27.612;2023-03-14T21:08:27;7.6;4.8;3.9
53698;PMS7003;68408;53.952;27.612;2023-03-14T21:14:17;7.3;5.1;4.2
53698;PMS7003;68408;53.952;27.612;2023-03-14T21:18:41;6.5;5.4;4.4
53698;PMS7003;68408;53.952;27.612;2023-03-14T21:23:59;8.5;5.9;4.4
53698;PMS7003;68408;53.952;27.612;2023-03-14T21:28:39;6.5;5.1;4
53698;PMS7003;68408;53.952;27.612;2023-03-14T21:39:03;8.3;5.6;4.2
53698;PMS7003;68408;53.952;27.612;2023-03-14T21:44:01;7.9;5.3;4.5
53698;PMS7003;68408;53.952;27.612;2023-03-14T21:48:47;9.3;5.7;4.7
53698;PMS7003;68408;53.952;27.612;2023-03-14T21:54:03;8.2;5.7;4.2
53698;PMS7003;68408;53.952;27.612;2023-03-14T21:59:17;8.4;5.8;4.5
53698;PMS7003;68408;53.952;27.612;2023-03-14T22:03:47;7.8;5.1;4.1
53698;PMS7003;68408;53.952;27.612;2023-03-14T22:09:03;6.7;5.3;4.2
53698;PMS7003;68408;53.952;27.612;2023-03-14T22:14:03;8.4;4.9;3.8
53698;PMS7003;68408;53.952;27.612;2023-03-14T22:19:01;8.7;6.2;4.3
53698;PMS7003;68408;53.952;27.612;2023-03-14T22:23:49;7.9;5.3;4.3
53698;PMS7003;68408;53.952;27.612;2023-03-14T22:29:01;7.2;5.5;4.5
53698;PMS7003;68408;53.952;27.612;2023-03-14T22:34:17;7.3;5.8;4.3
53698;PMS7003;68408;53.952;27.612;2023-03-14T22:39:17;8.4;6;4.7
53698;PMS7003;68408;53.952;27.612;2023-03-14T22:43:27;7.3;5.5;4
53698;PMS7003;68408;53.952;27.612;2023-03-14T22:49:03;7.8;5.7;4.1
53698;PMS7003;68408;53.952;27.612;2023-03-14T22:54:03;8.4;5.2;4.2
53698;PMS7003;68408;53.952;27.612;2023-03-14T22:58:27;8.7;6.2;4.4
53698;PMS7003;68408;53.952;27.612;2023-03-14T23:03:45;8.6;5.6;4.3
53698;PMS7003;68408;53.952;27.612;2023-03-14T23:09:17;9.5;6.6;4.6
53698;PMS7003;68408;53.952;27.612;2023-03-14T23:13:35;8;5.3;4.1
53698;PMS7003;68408;53.952;27.612;2023-03-14T23:18:45;9.1;5.9;4.4
53698;PMS7003;68408;53.952;27.612;2023-03-14T23:24:17;8.4;6.2;4.8
53698;PMS7003;68408;53.952;27.612;2023-03-14T23:28:50;8.9;6.1;4.4
53698;PMS7003;68408;53.952;27.612;2023-03-14T23:33:27;11.3;6.5;4.4
53698;PMS7003;68408;53.952;27.612;2023-03-14T23:38:27;10.1;6.7;4.9
53698;PMS7003;68408;53.952;27.612;2023-03-14T23:43:27;9.6;6.4;4.8
53698;PMS7003;68408;53.952;27.612;2023-03-14T23:49:03;9.7;6.7;4.4
53698;PMS7003;68408;53.952;27.612;2023-03-14T23:53:47;10.1;6.3;4.6
53698;PMS7003;68408;53.952;27.612;2023-03-14T23:58:47;8.9;5.8;4
